createdAt,value
2019-03-17T00:00:58.187Z,4.22
2019-03-17T00:11:51.384Z,3.94
2019-03-17T00:22:49.272Z,3.97
2019-03-17T00:33:44.305Z,3.69
2019-03-17T00:44:43.220Z,3.66
2019-03-17T00:55:39.335Z,3.48
2019-03-17T01:06:38.406Z,3.44
2019-03-17T01:17:37.055Z,3.39
2019-03-17T01:28:32.798Z,3.22
2019-03-17T01:39:34.213Z,3.10
2019-03-17T01:50:28.694Z,3.17
2019-03-17T02:01:26.413Z,2.99
2019-03-17T02:12:20.616Z,3.07
2019-03-17T02:23:04.756Z,2.95
2019-03-17T02:33:41.464Z,2.92
2019-03-17T02:44:35.764Z,3.07
2019-03-17T02:55:28.122Z,2.86
2019-03-17T03:06:27.056Z,2.77
2019-03-17T03:17:20.363Z,2.81
2019-03-17T03:28:19.317Z,2.60
2019-03-17T03:39:22.489Z,2.68
2019-03-17T03:50:17.906Z,2.71
2019-03-17T04:01:15.019Z,2.62
2019-03-17T04:12:14.174Z,2.71
2019-03-17T04:23:10.415Z,2.70
2019-03-17T04:34:10.044Z,2.28
2019-03-17T04:45:07.364Z,2.55
2019-03-17T04:56:09.886Z,2.55
2019-03-17T05:07:13.198Z,2.57
2019-03-17T05:18:13.853Z,2.41
2019-03-17T05:29:18.577Z,2.39
2019-03-17T05:40:18.144Z,2.57
2019-03-17T05:51:18.229Z,2.86
2019-03-17T06:02:23.154Z,2.95
2019-03-17T06:13:21.469Z,3.22
2019-03-17T06:24:24.153Z,3.90
2019-03-17T06:35:24.107Z,4.19
2019-03-17T06:46:22.760Z,4.47
2019-03-17T06:57:26.514Z,4.56
2019-03-17T07:08:27.240Z,4.64
2019-03-17T07:19:23.368Z,5.35
2019-03-17T07:30:28.666Z,6.26
2019-03-17T07:41:34.275Z,7.48
2019-03-17T07:52:31.434Z,7.56
2019-03-17T08:03:34.864Z,8.82
2019-03-17T08:14:26.031Z,9.16
2019-03-17T08:25:23.109Z,9.71
2019-03-17T08:36:25.847Z,10.23
2019-03-17T08:47:24.091Z,10.99
2019-03-17T08:58:22.803Z,11.59
2019-03-17T09:09:28.228Z,12.70
2019-03-17T09:20:30.873Z,13.38
2019-03-17T09:31:35.088Z,13.62
2019-03-17T09:42:34.229Z,14.75
2019-03-17T09:53:34.029Z,15.35
2019-03-17T10:04:39.426Z,15.73
2019-03-17T10:15:41.841Z,15.85
2019-03-17T10:26:45.182Z,16.37
2019-03-17T10:37:45.269Z,16.98
2019-03-17T10:48:49.330Z,17.64
2019-03-17T10:59:53.045Z,17.84
2019-03-17T11:10:58.107Z,19.32
2019-03-17T11:21:56.396Z,21.84
2019-03-17T11:32:58.947Z,21.19
2019-03-17T11:44:01.678Z,21.53
2019-03-17T11:55:02.054Z,21.91
2019-03-17T12:06:02.290Z,22.69
2019-03-17T12:17:00.542Z,21.84
2019-03-17T12:28:00.674Z,21.94
2019-03-17T12:39:04.279Z,22.04
2019-03-17T12:50:06.535Z,22.60
2019-03-17T13:01:07.214Z,22.34
2019-03-17T13:12:06.272Z,23.27
2019-03-17T13:23:09.759Z,23.58
2019-03-17T13:33:42.437Z,24.27
2019-03-17T13:44:29.691Z,25.71
2019-03-17T13:55:31.637Z,24.38
2019-03-17T14:06:34.001Z,24.54
2019-03-17T14:17:34.083Z,23.61
2019-03-17T14:28:29.725Z,23.04
2019-03-17T14:39:29.989Z,22.05
2019-03-17T14:50:29.092Z,22.15
2019-03-17T15:01:25.819Z,21.59
2019-03-17T15:12:25.874Z,20.80
2019-03-17T15:23:21.898Z,20.74
2019-03-17T15:34:26.001Z,21.21
2019-03-17T15:45:20.292Z,20.66
2019-03-17T15:56:21.517Z,20.33
2019-03-17T16:07:25.312Z,19.58
2019-03-17T16:18:23.018Z,19.93
2019-03-17T16:29:27.363Z,20.16
2019-03-17T16:40:23.876Z,18.80
2019-03-17T16:51:23.107Z,17.94
2019-03-17T17:02:20.370Z,17.46
2019-03-17T17:13:17.121Z,17.13
2019-03-17T17:24:13.384Z,16.80
2019-03-17T17:35:16.443Z,16.56
2019-03-17T17:46:14.504Z,16.42
2019-03-17T17:57:12.032Z,16.12
2019-03-17T18:08:15.677Z,16.12
2019-03-17T18:19:12.778Z,15.67
2019-03-17T18:30:13.174Z,15.67
2019-03-17T18:41:17.087Z,15.33
2019-03-17T18:52:17.089Z,14.95
2019-03-17T19:03:19.106Z,15.10
2019-03-17T19:14:16.364Z,15.12
2019-03-17T19:25:17.783Z,14.59
2019-03-17T19:36:17.180Z,15.24
2019-03-17T19:47:17.937Z,14.83
2019-03-17T19:58:22.241Z,14.67
2019-03-17T20:09:18.260Z,14.46
2019-03-17T20:20:15.506Z,12.71
2019-03-17T20:31:17.228Z,11.43
2019-03-17T20:42:14.413Z,10.74
2019-03-17T20:53:10.882Z,10.26
2019-03-17T21:04:10.369Z,9.82
2019-03-17T21:15:06.696Z,9.58
2019-03-17T21:26:03.746Z,9.37
2019-03-17T21:37:01.966Z,9.10
2019-03-17T21:47:56.485Z,8.75
2019-03-17T21:59:00.349Z,8.65
2019-03-17T22:10:00.384Z,8.60
2019-03-17T22:21:02.691Z,8.93
2019-03-17T22:32:03.313Z,9.00
2019-03-17T22:43:05.491Z,8.80
2019-03-17T22:54:01.755Z,8.95
2019-03-17T23:05:01.364Z,8.32
2019-03-17T23:16:03.004Z,8.09
2019-03-17T23:27:02.383Z,8.42
2019-03-17T23:38:00.208Z,9.14
2019-03-17T23:49:02.156Z,9.24
